createdAt,value
2018-05-23T00:00:02.133Z,16.13
2018-05-23T00:02:29.698Z,16.10
2018-05-23T00:04:57.237Z,16.06
2018-05-23T00:07:24.861Z,16.02
2018-05-23T00:09:52.399Z,16.02
2018-05-23T00:12:19.941Z,15.97
2018-05-23T00:14:48.211Z,15.84
2018-05-23T00:17:16.775Z,15.80
2018-05-23T00:19:44.339Z,15.79
2018-05-23T00:22:11.856Z,15.82
2018-05-23T00:24:39.402Z,15.97
2018-05-23T00:27:07.028Z,15.92
2018-05-23T00:29:34.556Z,15.88
2018-05-23T00:32:02.144Z,15.84
2018-05-23T00:34:29.683Z,15.81
2018-05-23T00:36:57.252Z,15.82
2018-05-23T00:39:24.750Z,15.74
2018-05-23T00:41:52.303Z,15.76
2018-05-23T00:44:19.844Z,15.77
2018-05-23T00:46:47.393Z,15.74
2018-05-23T00:49:14.958Z,15.79
2018-05-23T00:51:42.488Z,15.82
2018-05-23T00:54:10.262Z,15.80
2018-05-23T00:56:38.682Z,15.89
2018-05-23T00:59:06.296Z,15.89
2018-05-23T01:01:34.029Z,15.81
2018-05-23T01:04:01.581Z,15.79
2018-05-23T01:06:29.155Z,15.84
2018-05-23T01:08:56.707Z,15.84
2018-05-23T01:11:24.254Z,15.90
2018-05-23T01:13:51.887Z,15.94
2018-05-23T01:16:19.474Z,15.99
2018-05-23T01:18:47.007Z,16.04
2018-05-23T01:21:14.662Z,16.05
2018-05-23T01:23:42.211Z,16.07
2018-05-23T01:26:09.864Z,16.11
2018-05-23T01:28:37.414Z,16.10
2018-05-23T01:31:05.234Z,16.13
2018-05-23T01:33:32.755Z,16.14
2018-05-23T01:36:00.306Z,16.09
2018-05-23T01:38:27.880Z,16.09
2018-05-23T01:40:55.448Z,16.05
2018-05-23T01:43:23.005Z,16.06
2018-05-23T01:45:50.544Z,16.06
2018-05-23T01:48:18.121Z,16.03
2018-05-23T01:50:45.650Z,16.01
2018-05-23T01:53:13.206Z,15.99
2018-05-23T01:55:40.872Z,16.00
2018-05-23T01:58:08.641Z,15.92
2018-05-23T02:00:36.175Z,15.89
2018-05-23T02:03:03.742Z,15.90
2018-05-23T02:05:31.296Z,15.94
2018-05-23T02:07:58.911Z,15.80
2018-05-23T02:10:26.457Z,15.71
2018-05-23T02:12:54.070Z,15.69
2018-05-23T02:15:21.609Z,15.65
2018-05-23T02:20:39.733Z,15.62
2018-05-23T02:23:07.329Z,15.68
2018-05-23T02:25:34.883Z,15.72
2018-05-23T02:28:02.503Z,15.71
2018-05-23T02:30:30.086Z,15.62
2018-05-23T02:32:57.936Z,15.62
2018-05-23T02:35:25.480Z,15.65
2018-05-23T02:37:53.075Z,15.67
2018-05-23T02:40:20.622Z,15.67
2018-05-23T02:42:48.328Z,15.56
2018-05-23T02:45:15.859Z,15.57
2018-05-23T02:47:43.527Z,15.55
2018-05-23T02:50:11.159Z,15.38
2018-05-23T02:52:38.737Z,15.40
2018-05-23T02:55:06.294Z,15.31
2018-05-23T02:57:33.840Z,15.35
2018-05-23T03:00:01.523Z,15.34
2018-05-23T03:02:29.184Z,15.35
2018-05-23T03:04:56.706Z,15.34
2018-05-23T03:07:24.541Z,15.35
2018-05-23T03:09:52.130Z,15.37
2018-05-23T03:12:19.693Z,15.35
2018-05-23T03:14:47.238Z,15.38
2018-05-23T03:17:14.825Z,15.43
2018-05-23T03:19:42.405Z,15.47
2018-05-23T03:22:09.951Z,15.59
2018-05-23T03:24:37.608Z,15.64
2018-05-23T03:27:05.514Z,15.64
2018-05-23T03:29:33.155Z,15.60
2018-05-23T03:32:01.248Z,15.62
2018-05-23T03:34:28.995Z,15.63
2018-05-23T03:36:56.548Z,15.63
2018-05-23T03:39:24.131Z,15.64
2018-05-23T03:41:51.656Z,15.63
2018-05-23T03:44:19.209Z,15.63
2018-05-23T03:46:47.471Z,15.66
2018-05-23T03:49:15.036Z,15.73
2018-05-23T03:51:42.595Z,15.76
2018-05-23T03:54:10.505Z,15.69
2018-05-23T03:56:38.076Z,15.69
2018-05-23T03:59:05.801Z,15.71
2018-05-23T04:01:45.359Z,15.84
2018-05-23T04:04:24.628Z,15.84
2018-05-23T04:07:03.848Z,15.89
2018-05-23T04:09:33.508Z,15.89
2018-05-23T04:12:01.082Z,15.93
2018-05-23T04:14:28.628Z,15.92
2018-05-23T04:16:56.224Z,15.99
2018-05-23T04:19:23.788Z,15.95
2018-05-23T04:21:51.939Z,16.04
2018-05-23T04:24:19.496Z,16.07
2018-05-23T04:26:48.057Z,16.01
2018-05-23T04:29:15.634Z,16.01
2018-05-23T04:31:43.210Z,16.02
2018-05-23T04:34:10.740Z,16.00
2018-05-23T04:36:38.311Z,16.02
2018-05-23T04:39:06.894Z,15.98
2018-05-23T04:41:34.460Z,15.99
2018-05-23T04:44:02.051Z,15.97
2018-05-23T04:46:29.634Z,16.03
2018-05-23T04:48:57.196Z,16.08
2018-05-23T04:51:24.915Z,16.09
2018-05-23T04:53:52.475Z,16.11
2018-05-23T04:56:20.017Z,16.13
2018-05-23T04:58:47.806Z,16.09
2018-05-23T05:01:15.363Z,16.08
2018-05-23T05:03:42.896Z,16.09
2018-05-23T05:06:10.586Z,16.00
2018-05-23T05:08:38.357Z,16.01
2018-05-23T05:11:06.095Z,16.00
2018-05-23T05:13:33.704Z,16.06
2018-05-23T05:16:01.245Z,16.12
2018-05-23T05:18:28.807Z,16.20
2018-05-23T05:20:56.371Z,16.18
2018-05-23T05:23:23.934Z,16.21
2018-05-23T05:25:51.454Z,16.13
2018-05-23T05:28:19.204Z,16.23
2018-05-23T05:30:46.735Z,16.36
2018-05-23T05:33:14.293Z,16.47
2018-05-23T05:35:41.847Z,16.63
2018-05-23T05:38:09.421Z,16.75
2018-05-23T05:40:36.967Z,16.80
2018-05-23T05:43:04.542Z,16.79
2018-05-23T05:45:32.107Z,16.93
2018-05-23T05:47:59.734Z,17.02
2018-05-23T05:50:27.290Z,17.10
2018-05-23T05:52:54.863Z,17.16
2018-05-23T05:55:22.454Z,17.25
2018-05-23T05:57:49.999Z,17.23
2018-05-23T06:00:17.683Z,17.22
2018-05-23T06:02:45.238Z,17.34
2018-05-23T06:05:13.290Z,17.42
2018-05-23T06:07:40.830Z,17.45
2018-05-23T06:10:08.416Z,17.31
2018-05-23T06:12:35.971Z,17.29
2018-05-23T06:15:03.577Z,17.43
2018-05-23T06:17:31.145Z,17.44
2018-05-23T06:19:58.686Z,17.42
2018-05-23T06:22:26.301Z,17.51
2018-05-23T06:24:54.120Z,17.62
2018-05-23T06:27:21.651Z,17.58
2018-05-23T06:29:49.290Z,17.73
2018-05-23T06:32:17.919Z,17.74
2018-05-23T06:34:45.585Z,17.69
2018-05-23T06:37:13.121Z,17.73
2018-05-23T06:39:40.763Z,17.69
2018-05-23T06:42:08.309Z,17.77
2018-05-23T06:44:35.942Z,17.96
2018-05-23T06:47:03.510Z,18.04
2018-05-23T06:49:31.149Z,17.96
2018-05-23T06:51:58.680Z,18.03
2018-05-23T06:54:26.471Z,18.02
2018-05-23T06:56:54.165Z,18.13
2018-05-23T06:59:21.912Z,18.08
2018-05-23T07:01:49.666Z,18.25
2018-05-23T07:04:17.243Z,18.41
2018-05-23T07:06:44.883Z,18.39
2018-05-23T07:09:13.182Z,18.55
2018-05-23T07:11:40.743Z,18.49
2018-05-23T07:14:08.367Z,18.67
2018-05-23T07:16:36.044Z,18.83
2018-05-23T07:19:03.648Z,18.93
2018-05-23T07:21:31.187Z,19.14
2018-05-23T07:23:59.706Z,19.10
2018-05-23T07:26:27.405Z,19.15
2018-05-23T07:28:54.937Z,19.39
2018-05-23T07:31:23.488Z,19.36
2018-05-23T07:33:51.016Z,19.49
2018-05-23T07:36:19.593Z,19.53
2018-05-23T07:38:47.149Z,19.69
2018-05-23T07:41:14.715Z,20.17
2018-05-23T07:43:42.263Z,20.28
2018-05-23T07:46:10.477Z,20.63
2018-05-23T07:48:39.033Z,20.52
2018-05-23T07:51:06.694Z,20.60
2018-05-23T07:53:34.349Z,21.02
2018-05-23T07:56:01.912Z,20.79
2018-05-23T07:58:29.463Z,20.92
2018-05-23T08:00:56.969Z,21.02
2018-05-23T08:03:24.579Z,20.88
2018-05-23T08:05:52.099Z,20.56
2018-05-23T08:08:19.620Z,20.81
2018-05-23T08:10:47.223Z,20.49
2018-05-23T08:13:14.758Z,20.49
2018-05-23T08:15:42.315Z,20.25
2018-05-23T08:18:10.093Z,20.33
2018-05-23T08:20:37.713Z,20.45
2018-05-23T08:23:05.226Z,20.40
2018-05-23T08:25:33.566Z,20.72
2018-05-23T08:28:01.148Z,20.56
2018-05-23T08:30:28.750Z,20.83
2018-05-23T08:32:56.293Z,21.04
2018-05-23T08:35:23.986Z,21.20
2018-05-23T08:37:51.598Z,21.22
2018-05-23T08:40:19.139Z,21.47
2018-05-23T08:42:46.671Z,21.90
2018-05-23T08:45:14.388Z,21.75
2018-05-23T08:47:42.088Z,21.73
2018-05-23T08:50:09.683Z,21.57
2018-05-23T08:52:37.316Z,21.89
2018-05-23T08:55:05.288Z,22.02
2018-05-23T08:57:33.875Z,22.29
2018-05-23T09:00:01.538Z,22.55
2018-05-23T09:02:29.080Z,22.41
2018-05-23T09:04:56.639Z,22.41
2018-05-23T09:07:25.257Z,22.37
2018-05-23T09:09:52.714Z,22.93
2018-05-23T09:12:20.479Z,23.25
2018-05-23T09:14:48.031Z,23.50
2018-05-23T09:17:15.734Z,23.44
2018-05-23T09:19:43.280Z,23.29
2018-05-23T09:22:10.826Z,23.10
2018-05-23T09:24:38.380Z,23.13
2018-05-23T09:27:06.012Z,23.41
2018-05-23T09:29:33.664Z,23.70
2018-05-23T09:32:01.449Z,23.95
2018-05-23T09:34:29.102Z,24.18
2018-05-23T09:36:56.626Z,24.16
2018-05-23T09:39:24.298Z,23.68
2018-05-23T09:41:51.969Z,23.22
2018-05-23T09:44:19.530Z,22.95
2018-05-23T09:46:47.292Z,22.88
2018-05-23T09:49:14.884Z,22.75
2018-05-23T09:51:42.430Z,22.53
2018-05-23T09:54:09.973Z,22.52
2018-05-23T09:56:37.650Z,22.69
2018-05-23T09:59:05.267Z,22.89
2018-05-23T10:01:33.197Z,23.12
2018-05-23T10:04:00.696Z,23.18
2018-05-23T10:06:28.468Z,23.23
2018-05-23T10:08:56.101Z,23.20
2018-05-23T10:11:23.727Z,22.74
2018-05-23T10:13:51.388Z,22.81
2018-05-23T10:16:19.055Z,22.81
2018-05-23T10:18:46.602Z,22.45
2018-05-23T10:21:14.141Z,22.52
2018-05-23T10:23:41.685Z,22.77
2018-05-23T10:26:09.213Z,23.15
2018-05-23T10:28:36.777Z,23.22
2018-05-23T10:31:04.312Z,23.62
2018-05-23T10:33:31.916Z,24.03
2018-05-23T10:35:59.469Z,24.39
2018-05-23T10:38:27.004Z,24.56
2018-05-23T10:40:54.531Z,24.84
2018-05-23T10:43:22.080Z,25.28
2018-05-23T10:45:49.664Z,25.31
2018-05-23T10:48:17.199Z,25.34
2018-05-23T10:50:44.781Z,24.72
2018-05-23T10:53:12.387Z,24.89
2018-05-23T10:55:40.002Z,24.85
2018-05-23T10:58:07.551Z,25.20
2018-05-23T11:00:35.225Z,25.47
2018-05-23T11:03:02.906Z,25.73
2018-05-23T11:05:30.387Z,26.04
2018-05-23T11:07:57.925Z,26.01
2018-05-23T11:10:25.668Z,26.83
2018-05-23T11:12:53.328Z,26.90
2018-05-23T11:15:20.980Z,26.96
2018-05-23T11:17:48.465Z,26.27
2018-05-23T11:20:16.019Z,26.55
2018-05-23T11:22:43.871Z,26.50
2018-05-23T11:25:11.525Z,26.62
2018-05-23T11:27:39.197Z,26.16
2018-05-23T11:30:07.103Z,26.77
2018-05-23T11:32:34.887Z,26.96
2018-05-23T11:35:02.486Z,26.66
2018-05-23T11:37:30.049Z,26.92
2018-05-23T11:39:57.689Z,26.63
2018-05-23T11:42:25.224Z,26.52
2018-05-23T11:44:53.332Z,25.86
2018-05-23T11:47:20.874Z,25.86
2018-05-23T11:49:48.425Z,26.35
2018-05-23T11:52:16.015Z,26.68
2018-05-23T11:54:43.651Z,27.17
2018-05-23T11:57:11.121Z,27.10
2018-05-23T11:59:38.798Z,27.35
2018-05-23T12:02:06.363Z,26.76
2018-05-23T12:04:33.909Z,27.03
2018-05-23T12:07:01.452Z,28.17
2018-05-23T12:09:29.000Z,29.49
2018-05-23T12:11:56.594Z,30.75
2018-05-23T12:14:24.157Z,32.07
2018-05-23T12:16:51.793Z,33.82
2018-05-23T12:19:19.860Z,34.83
2018-05-23T12:21:47.406Z,34.84
2018-05-23T12:24:15.063Z,34.46
2018-05-23T12:26:42.588Z,36.32
2018-05-23T12:29:10.135Z,37.88
2018-05-23T12:31:37.642Z,38.51
2018-05-23T12:34:05.173Z,38.14
2018-05-23T12:36:32.814Z,37.59
2018-05-23T12:39:00.441Z,37.29
2018-05-23T12:41:28.013Z,37.06
2018-05-23T12:43:55.540Z,36.60
2018-05-23T12:46:23.325Z,35.63
2018-05-23T12:48:50.837Z,33.68
2018-05-23T12:51:18.381Z,35.51
2018-05-23T12:53:46.226Z,36.83
2018-05-23T12:56:13.872Z,35.81
2018-05-23T12:58:41.451Z,34.78
2018-05-23T13:01:09.497Z,34.68
2018-05-23T13:03:37.049Z,36.38
2018-05-23T13:06:04.653Z,38.09
2018-05-23T13:08:32.213Z,39.93
2018-05-23T13:10:59.873Z,41.03
2018-05-23T13:13:27.462Z,41.30
2018-05-23T13:15:55.166Z,42.63
2018-05-23T13:18:22.972Z,42.69
2018-05-23T13:20:50.507Z,43.28
2018-05-23T13:23:18.045Z,44.12
2018-05-23T13:25:45.783Z,43.10
2018-05-23T13:28:13.454Z,41.39
2018-05-23T13:30:41.046Z,41.65
2018-05-23T13:33:08.598Z,40.04
2018-05-23T13:35:36.147Z,41.89
2018-05-23T13:38:03.716Z,43.16
2018-05-23T13:40:32.004Z,43.68
2018-05-23T13:42:59.594Z,42.48
2018-05-23T13:45:27.175Z,42.60
2018-05-23T13:47:55.269Z,41.55
2018-05-23T13:50:22.847Z,40.73
2018-05-23T13:52:50.428Z,41.88
2018-05-23T13:55:18.060Z,42.15
2018-05-23T13:57:45.631Z,43.26
2018-05-23T14:00:13.223Z,43.03
2018-05-23T14:02:40.816Z,43.01
2018-05-23T14:05:08.345Z,42.76
2018-05-23T14:07:35.884Z,43.46
2018-05-23T14:10:03.537Z,44.37
2018-05-23T14:12:31.714Z,44.60
2018-05-23T14:14:59.247Z,43.69
2018-05-23T14:17:26.796Z,43.00
2018-05-23T14:19:54.352Z,40.67
2018-05-23T14:22:21.924Z,41.52
2018-05-23T14:24:49.459Z,41.57
2018-05-23T14:27:17.010Z,40.97
2018-05-23T14:29:44.579Z,41.63
2018-05-23T14:32:12.104Z,42.09
2018-05-23T14:34:39.660Z,41.16
2018-05-23T14:37:07.215Z,42.30
2018-05-23T14:39:34.803Z,42.73
2018-05-23T14:42:02.515Z,43.96
2018-05-23T14:44:30.104Z,42.64
2018-05-23T14:46:57.648Z,42.61
2018-05-23T14:49:25.300Z,43.68
2018-05-23T14:51:52.965Z,43.19
2018-05-23T14:54:20.499Z,43.15
2018-05-23T14:56:48.066Z,42.15
2018-05-23T14:59:15.637Z,42.74
2018-05-23T15:01:43.383Z,43.92
2018-05-23T15:04:10.926Z,44.53
2018-05-23T15:06:38.549Z,43.16
2018-05-23T15:09:06.112Z,43.58
2018-05-23T15:11:33.774Z,40.37
2018-05-23T15:14:01.299Z,41.45
2018-05-23T15:16:28.837Z,41.33
2018-05-23T15:18:56.396Z,42.27
2018-05-23T15:21:23.943Z,42.37
2018-05-23T15:23:51.492Z,42.47
2018-05-23T15:26:19.435Z,41.32
2018-05-23T15:28:47.008Z,39.71
2018-05-23T15:31:14.648Z,39.91
2018-05-23T15:33:42.155Z,39.12
2018-05-23T15:36:09.730Z,40.12
2018-05-23T15:38:37.317Z,40.69
2018-05-23T15:41:04.847Z,41.08
2018-05-23T15:43:32.408Z,39.32
2018-05-23T15:45:59.990Z,39.16
2018-05-23T15:48:27.501Z,38.23
2018-05-23T15:50:55.101Z,38.38
2018-05-23T15:53:22.707Z,40.33
2018-05-23T15:55:50.279Z,41.64
2018-05-23T15:58:17.818Z,42.73
2018-05-23T16:00:45.605Z,43.26
2018-05-23T16:03:13.168Z,43.64
2018-05-23T16:05:40.727Z,44.25
2018-05-23T16:08:08.510Z,44.54
2018-05-23T16:10:36.219Z,45.23
2018-05-23T16:13:03.768Z,45.60
2018-05-23T16:15:31.307Z,44.74
2018-05-23T16:17:58.854Z,42.30
2018-05-23T16:20:26.381Z,43.65
2018-05-23T16:22:53.985Z,44.07
2018-05-23T16:25:21.585Z,42.72
2018-05-23T16:27:49.387Z,43.04
2018-05-23T16:30:17.014Z,42.33
2018-05-23T16:32:44.569Z,39.76
2018-05-23T16:35:12.111Z,39.71
2018-05-23T16:37:39.680Z,40.05
2018-05-23T16:40:07.240Z,39.19
2018-05-23T16:42:34.842Z,39.69
2018-05-23T16:45:02.403Z,40.69
2018-05-23T16:47:29.962Z,40.47
2018-05-23T16:49:57.503Z,39.96
2018-05-23T16:52:25.082Z,39.01
2018-05-23T16:54:52.596Z,38.46
2018-05-23T16:57:20.194Z,36.78
2018-05-23T16:59:47.744Z,35.23
2018-05-23T17:02:15.444Z,33.72
2018-05-23T17:04:42.998Z,33.31
2018-05-23T17:07:11.166Z,33.46
2018-05-23T17:09:38.765Z,33.41
2018-05-23T17:12:06.414Z,33.25
2018-05-23T17:14:33.991Z,32.78
2018-05-23T17:17:01.511Z,32.59
2018-05-23T17:19:29.072Z,32.40
2018-05-23T17:21:56.601Z,32.54
2018-05-23T17:24:24.145Z,32.34
2018-05-23T17:26:51.671Z,31.82
2018-05-23T17:29:19.311Z,31.04
2018-05-23T17:31:46.849Z,30.39
2018-05-23T17:34:14.472Z,30.12
2018-05-23T17:36:42.032Z,29.72
2018-05-23T17:39:09.568Z,29.32
2018-05-23T17:41:37.220Z,28.96
2018-05-23T17:44:04.811Z,28.65
2018-05-23T17:46:32.392Z,28.30
2018-05-23T17:48:59.937Z,27.92
2018-05-23T17:51:27.452Z,27.48
2018-05-23T17:53:54.988Z,27.25
2018-05-23T17:56:22.521Z,27.08
2018-05-23T17:58:50.073Z,26.90
2018-05-23T18:01:17.696Z,26.38
2018-05-23T18:03:45.216Z,26.09
2018-05-23T18:06:12.887Z,25.89
2018-05-23T18:08:40.361Z,25.65
2018-05-23T18:11:07.913Z,25.39
2018-05-23T18:13:35.431Z,25.16
2018-05-23T18:16:02.970Z,24.73
2018-05-23T18:18:30.517Z,24.57
2018-05-23T18:20:58.066Z,24.41
2018-05-23T18:23:25.781Z,24.14
2018-05-23T18:25:53.286Z,24.03
2018-05-23T18:28:20.925Z,23.74
2018-05-23T18:30:48.488Z,23.43
2018-05-23T18:33:16.097Z,23.21
2018-05-23T18:35:44.111Z,23.08
2018-05-23T18:38:11.669Z,22.97
2018-05-23T18:40:39.203Z,22.79
2018-05-23T18:43:06.760Z,22.52
2018-05-23T18:45:34.311Z,22.47
2018-05-23T18:48:01.893Z,22.25
2018-05-23T18:50:29.517Z,22.05
2018-05-23T18:52:57.044Z,21.86
2018-05-23T18:55:24.600Z,21.79
2018-05-23T18:57:52.147Z,21.72
2018-05-23T19:00:19.711Z,21.47
2018-05-23T19:02:47.460Z,21.43
2018-05-23T19:05:15.092Z,21.31
2018-05-23T19:07:42.574Z,21.28
2018-05-23T19:10:10.182Z,21.22
2018-05-23T19:12:37.717Z,21.16
2018-05-23T19:15:05.494Z,21.06
2018-05-23T19:17:33.065Z,20.98
2018-05-23T19:20:00.697Z,20.82
2018-05-23T19:22:28.270Z,20.74
2018-05-23T19:24:55.914Z,20.65
2018-05-23T19:27:23.487Z,20.58
2018-05-23T19:29:51.041Z,20.44
2018-05-23T19:32:18.592Z,20.21
2018-05-23T19:34:46.141Z,20.23
2018-05-23T19:37:14.269Z,20.07
2018-05-23T19:39:41.882Z,19.96
2018-05-23T19:42:09.388Z,19.93
2018-05-23T19:44:37.058Z,19.89
2018-05-23T19:47:04.599Z,19.82
2018-05-23T19:49:32.147Z,19.75
2018-05-23T19:52:00.149Z,19.63
2018-05-23T19:54:27.696Z,19.54
2018-05-23T19:56:55.231Z,19.45
2018-05-23T19:59:22.765Z,19.37
2018-05-23T20:01:50.479Z,19.26
2018-05-23T20:04:18.108Z,19.24
2018-05-23T20:06:45.627Z,19.19
2018-05-23T20:09:13.164Z,19.17
2018-05-23T20:11:40.683Z,19.13
2018-05-23T20:14:08.346Z,19.02
2018-05-23T20:16:35.950Z,19.01
2018-05-23T20:19:03.514Z,18.97
2018-05-23T20:21:31.084Z,18.92
2018-05-23T20:23:59.244Z,18.92
2018-05-23T20:26:26.764Z,18.89
2018-05-23T20:28:54.292Z,18.81
2018-05-23T20:31:21.807Z,18.77
2018-05-23T20:33:49.339Z,18.75
2018-05-23T20:36:16.855Z,18.69
2018-05-23T20:38:44.384Z,18.69
2018-05-23T20:41:11.908Z,18.65
2018-05-23T20:43:39.445Z,18.63
2018-05-23T20:46:07.011Z,18.56
2018-05-23T20:48:34.584Z,18.55
2018-05-23T20:51:02.144Z,18.52
2018-05-23T20:53:29.691Z,18.50
2018-05-23T20:55:57.215Z,18.47
2018-05-23T20:58:24.799Z,18.45
2018-05-23T21:00:52.434Z,18.39
2018-05-23T21:03:19.977Z,18.33
2018-05-23T21:05:47.728Z,18.28
2018-05-23T21:08:15.180Z,18.25
2018-05-23T21:10:43.291Z,18.21
2018-05-23T21:13:10.845Z,18.19
2018-05-23T21:15:38.621Z,18.15
2018-05-23T21:18:06.188Z,18.14
2018-05-23T21:20:33.766Z,18.14
2018-05-23T21:23:01.285Z,18.13
2018-05-23T21:25:28.855Z,18.11
2018-05-23T21:27:56.800Z,18.07
2018-05-23T21:30:24.312Z,18.05
2018-05-23T21:32:51.858Z,18.01
2018-05-23T21:35:19.417Z,17.97
2018-05-23T21:37:46.955Z,17.94
2018-05-23T21:40:14.927Z,17.90
2018-05-23T21:42:42.602Z,17.90
2018-05-23T21:45:10.153Z,17.88
2018-05-23T21:47:37.682Z,17.83
2018-05-23T21:50:05.283Z,17.79
2018-05-23T21:52:32.808Z,17.79
2018-05-23T21:55:00.383Z,17.79
2018-05-23T21:57:27.957Z,17.79
2018-05-23T21:59:55.454Z,17.75
2018-05-23T22:02:22.983Z,17.71
2018-05-23T22:04:50.544Z,17.67
2018-05-23T22:07:18.077Z,17.66
2018-05-23T22:09:45.658Z,17.58
2018-05-23T22:12:13.315Z,17.53
2018-05-23T22:14:40.801Z,17.44
2018-05-23T22:17:08.362Z,17.38
2018-05-23T22:19:35.909Z,17.34
2018-05-23T22:22:03.415Z,17.28
2018-05-23T22:24:30.969Z,17.26
2018-05-23T22:26:58.533Z,17.21
2018-05-23T22:29:26.071Z,17.14
2018-05-23T22:31:53.654Z,17.08
2018-05-23T22:34:21.456Z,17.05
2018-05-23T22:36:49.021Z,17.01
2018-05-23T22:39:16.597Z,16.99
2018-05-23T22:41:44.149Z,16.95
2018-05-23T22:44:11.696Z,16.90
2018-05-23T22:46:39.273Z,16.86
2018-05-23T22:49:06.924Z,16.81
2018-05-23T22:51:34.462Z,16.74
2018-05-23T22:54:02.333Z,16.73
2018-05-23T22:56:29.884Z,16.69
2018-05-23T22:58:57.415Z,16.67
2018-05-23T23:01:25.010Z,16.62
2018-05-23T23:03:52.586Z,16.59
2018-05-23T23:06:20.151Z,16.59
2018-05-23T23:08:47.703Z,16.58
2018-05-23T23:11:15.266Z,16.54
2018-05-23T23:13:42.827Z,16.47
2018-05-23T23:16:10.381Z,16.43
2018-05-23T23:18:37.977Z,16.44
2018-05-23T23:21:05.719Z,16.42
2018-05-23T23:23:33.282Z,16.37
2018-05-23T23:26:00.841Z,16.30
2018-05-23T23:28:28.409Z,16.25
2018-05-23T23:30:55.969Z,16.21
2018-05-23T23:33:23.530Z,16.15
2018-05-23T23:35:51.106Z,16.20
2018-05-23T23:38:18.635Z,16.19
2018-05-23T23:40:46.182Z,16.14
2018-05-23T23:43:13.739Z,16.11
2018-05-23T23:45:41.306Z,16.08
2018-05-23T23:48:08.865Z,16.04
2018-05-23T23:50:36.415Z,16.00
2018-05-23T23:53:04.017Z,15.96
2018-05-23T23:55:31.570Z,15.92
2018-05-23T23:57:59.129Z,15.90
